首页
METAR-TAF:

METAR-TAF

机场 :

哥本哈根凯斯楚普机场

哥本哈根, 丹麦

纬度: 55-37N, 经度: 012-39E, 海拔: 5米

当前天气观测

该预报发布于33分钟前的01:51 UTC
风速10节,风向西
温度 12°C
湿度 100%
气压 1021 hPa
能見度: 3000
多云层高于500英尺
小毛毛雨, 轻雾

METAR: EKCH 220151Z 28010KT 3000 -DZ BR BKN005 12/12 Q1021 TEMPO 1200 BKN004

时间: 04:24 (02:24 UTC)

预报

该预报发布于3小时和5分钟前的23:19 UTC
预报有效从22日的 00点(UTC)到 22日的 24点(UTC)
风速14节,风向西转西南
能見度: 5000
多云层高于1500英尺
成为
从 22日的 00点(UTC)到 22日的 02点(UTC)
能見度: 2500
多云层高于800英尺
雨, 毛毛雨, 轻雾
成为
从 22日的 02点(UTC)到 22日的 04点(UTC)
风速14节,风向西北
能见度10公里或以上
散云层高于2500英尺
短暂存在
从 22日的 09点(UTC)到 22日的 15点(UTC)
风速18节,风向西转西北,有时为30节阵风
成为
从 22日的 20点(UTC)到 22日的 23点(UTC)
风速12节,风向西转西南

TAF: EKCH 212319Z 2200/2224 24014KT 5000 BKN015 BECMG 2200/2202 2500 RADZ BR BKN008 BECMG 2202/2204 31014KT 9999 NSW SCT025 TEMPO 2209/2215 30018G30KT BECMG 2220/2223 25012KT

超过4000个机场的气象观测和天气预报(METAR&TAF报告)。

可查询的气象台以黄色和红色小点在地图上表示。

将鼠标移到小点上方,可查看气象台名称。

然后点击查看天气观测和预报。

如需切换地图:点击带黑十字的绿色按钮放大地图;点击带横线的绿色按钮缩小地图;或者点击绿色箭头查看邻近地区的地图。


METAR-TAF: